sensor_id;sensor_type;location;lat;lon;timestamp;pressure;altitude;pressure_sealevel;temperature;humidity
77013;BME280;67260;53.130;17.982;2023-02-28T00:00:50;102789.19;;;-3.76;72.34
77013;BME280;67260;53.130;17.982;2023-02-28T00:03:18;102787.27;;;-3.75;72.31
77013;BME280;67260;53.130;17.982;2023-02-28T00:05:44;102786.98;;;-3.73;72.15
77013;BME280;67260;53.130;17.982;2023-02-28T00:08:11;102786.85;;;-3.70;72.32
77013;BME280;67260;53.130;17.982;2023-02-28T00:10:39;102789.53;;;-3.67;72.40
77013;BME280;67260;53.130;17.982;2023-02-28T00:13:06;102787.35;;;-3.65;72.07
77013;BME280;67260;53.130;17.982;2023-02-28T00:15:34;102786.00;;;-3.62;72.32
77013;BME280;67260;53.130;17.982;2023-02-28T00:18:02;102783.59;;;-3.62;72.29
77013;BME280;67260;53.130;17.982;2023-02-28T00:20:29;102781.98;;;-3.65;72.18
77013;BME280;67260;53.130;17.982;2023-02-28T00:22:56;102783.86;;;-3.69;72.53
77013;BME280;67260;53.130;17.982;2023-02-28T00:25:25;102785.71;;;-3.76;72.27
77013;BME280;67260;53.130;17.982;2023-02-28T00:27:52;102783.44;;;-3.83;72.65
77013;BME280;67260;53.130;17.982;2023-02-28T00:30:23;102785.83;;;-3.90;72.25
77013;BME280;67260;53.130;17.982;2023-02-28T00:32:50;102788.77;;;-3.99;72.41
77013;BME280;67260;53.130;17.982;2023-02-28T00:35:17;102785.19;;;-4.05;72.59
77013;BME280;67260;53.130;17.982;2023-02-28T00:37:44;102784.52;;;-4.10;72.56
77013;BME280;67260;53.130;17.982;2023-02-28T00:40:11;102789.04;;;-4.10;72.79
77013;BME280;67260;53.130;17.982;2023-02-28T00:42:39;102785.75;;;-4.10;72.75
77013;BME280;67260;53.130;17.982;2023-02-28T00:45:07;102784.65;;;-4.09;73.02
77013;BME280;67260;53.130;17.982;2023-02-28T00:47:34;102787.86;;;-4.11;73.17
77013;BME280;67260;53.130;17.982;2023-02-28T00:50:01;102786.92;;;-4.13;72.97
77013;BME280;67260;53.130;17.982;2023-02-28T00:52:28;102787.91;;;-4.13;72.87
77013;BME280;67260;53.130;17.982;2023-02-28T00:54:55;102785.88;;;-4.09;72.93
77013;BME280;67260;53.130;17.982;2023-02-28T00:57:22;102787.84;;;-4.06;72.74
77013;BME280;67260;53.130;17.982;2023-02-28T00:59:48;102789.04;;;-4.06;73.08
77013;BME280;67260;53.130;17.982;2023-02-28T01:02:15;102789.86;;;-4.09;73.01
77013;BME280;67260;53.130;17.982;2023-02-28T01:04:42;102789.48;;;-4.13;72.79
77013;BME280;67260;53.130;17.982;2023-02-28T01:07:08;102793.86;;;-4.14;73.19
77013;BME280;67260;53.130;17.982;2023-02-28T01:09:35;102798.70;;;-4.18;72.87
77013;BME280;67260;53.130;17.982;2023-02-28T01:12:02;102798.27;;;-4.20;73.03
77013;BME280;67260;53.130;17.982;2023-02-28T01:14:29;102796.55;;;-4.20;73.18
77013;BME280;67260;53.130;17.982;2023-02-28T01:16:55;102794.21;;;-4.18;73.19
77013;BME280;67260;53.130;17.982;2023-02-28T01:19:22;102797.20;;;-4.15;73.50
77013;BME280;67260;53.130;17.982;2023-02-28T01:21:49;102799.13;;;-4.16;73.65
77013;BME280;67260;53.130;17.982;2023-02-28T01:24:15;102799.80;;;-4.19;73.10
77013;BME280;67260;53.130;17.982;2023-02-28T01:26:42;102797.30;;;-4.26;73.00
77013;BME280;67260;53.130;17.982;2023-02-28T01:29:09;102793.73;;;-4.32;73.33
77013;BME280;67260;53.130;17.982;2023-02-28T01:31:35;102789.66;;;-4.34;73.59
77013;BME280;67260;53.130;17.982;2023-02-28T01:34:03;102785.73;;;-4.35;73.74
77013;BME280;67260;53.130;17.982;2023-02-28T01:36:29;102788.63;;;-4.38;73.56
77013;BME280;67260;53.130;17.982;2023-02-28T01:38:56;102782.09;;;-4.44;73.23
77013;BME280;67260;53.130;17.982;2023-02-28T01:41:26;102781.08;;;-4.49;73.47
77013;BME280;67260;53.130;17.982;2023-02-28T01:46:21;102786.06;;;-4.53;73.94
77013;BME280;67260;53.130;17.982;2023-02-28T01:48:55;102782.23;;;-4.52;73.62
77013;BME280;67260;53.130;17.982;2023-02-28T01:54:02;102777.80;;;-4.49;73.71
77013;BME280;67260;53.130;17.982;2023-02-28T01:56:32;102777.67;;;-4.46;73.40
77013;BME280;67260;53.130;17.982;2023-02-28T01:59:01;102775.20;;;-4.40;73.61
77013;BME280;67260;53.130;17.982;2023-02-28T02:01:28;102772.05;;;-4.35;73.71
77013;BME280;67260;53.130;17.982;2023-02-28T02:03:59;102776.16;;;-4.34;73.39
77013;BME280;67260;53.130;17.982;2023-02-28T02:06:30;102778.16;;;-4.36;73.64
77013;BME280;67260;53.130;17.982;2023-02-28T02:09:00;102776.13;;;-4.42;73.46
77013;BME280;67260;53.130;17.982;2023-02-28T02:11:27;102779.77;;;-4.46;73.45
77013;BME280;67260;53.130;17.982;2023-02-28T02:19:46;102775.66;;;-4.56;73.28
77013;BME280;67260;53.130;17.982;2023-02-28T02:22:45;102774.92;;;-4.55;73.86
77013;BME280;67260;53.130;17.982;2023-02-28T02:25:29;102778.34;;;-4.54;74.07
77013;BME280;67260;53.130;17.982;2023-02-28T02:28:22;102784.88;;;-4.58;73.99
77013;BME280;67260;53.130;17.982;2023-02-28T02:37:28;102790.44;;;-4.77;74.07
77013;BME280;67260;53.130;17.982;2023-02-28T02:40:11;102787.90;;;-4.78;74.36
77013;BME280;67260;53.130;17.982;2023-02-28T02:43:02;102789.80;;;-4.78;74.36
77013;BME280;67260;53.130;17.982;2023-02-28T02:45:42;102790.36;;;-4.79;74.24
77013;BME280;67260;53.130;17.982;2023-02-28T02:48:12;102791.30;;;-4.82;74.19
77013;BME280;67260;53.130;17.982;2023-02-28T02:50:49;102790.84;;;-4.83;73.94
77013;BME280;67260;53.130;17.982;2023-02-28T02:53:19;102790.02;;;-4.80;73.85
77013;BME280;67260;53.130;17.982;2023-02-28T02:55:50;102790.52;;;-4.74;73.91
77013;BME280;67260;53.130;17.982;2023-02-28T02:58:27;102787.90;;;-4.69;74.08
77013;BME280;67260;53.130;17.982;2023-02-28T03:00:59;102789.73;;;-4.68;74.22
77013;BME280;67260;53.130;17.982;2023-02-28T03:03:28;102789.46;;;-4.70;74.36
77013;BME280;67260;53.130;17.982;2023-02-28T03:05:58;102790.36;;;-4.70;74.20
77013;BME280;67260;53.130;17.982;2023-02-28T03:08:26;102791.83;;;-4.73;74.39
77013;BME280;67260;53.130;17.982;2023-02-28T03:10:59;102786.77;;;-4.76;74.02
77013;BME280;67260;53.130;17.982;2023-02-28T03:19:12;102795.52;;;-4.79;74.22
77013;BME280;67260;53.130;17.982;2023-02-28T03:32:59;102792.99;;;-5.00;74.57
77013;BME280;67260;53.130;17.982;2023-02-28T03:35:35;102797.05;;;-5.02;74.70
77013;BME280;67260;53.130;17.982;2023-02-28T03:38:44;102796.73;;;-5.03;74.22
77013;BME280;67260;53.130;17.982;2023-02-28T03:41:17;102799.89;;;-5.04;74.58
77013;BME280;67260;53.130;17.982;2023-02-28T03:43:52;102798.73;;;-5.05;74.25
77013;BME280;67260;53.130;17.982;2023-02-28T03:46:24;102805.66;;;-5.06;74.15
77013;BME280;67260;53.130;17.982;2023-02-28T03:49:00;102807.81;;;-5.08;73.87
77013;BME280;67260;53.130;17.982;2023-02-28T03:51:30;102808.78;;;-5.11;74.27
77013;BME280;67260;53.130;17.982;2023-02-28T03:54:04;102810.08;;;-5.13;74.16
77013;BME280;67260;53.130;17.982;2023-02-28T03:56:38;102811.93;;;-5.12;74.38
77013;BME280;67260;53.130;17.982;2023-02-28T04:01:47;102815.73;;;-5.08;74.40
77013;BME280;67260;53.130;17.982;2023-02-28T04:04:16;102814.50;;;-5.12;74.56
77013;BME280;67260;53.130;17.982;2023-02-28T04:06:44;102819.95;;;-5.18;74.33
77013;BME280;67260;53.130;17.982;2023-02-28T04:09:14;102818.11;;;-5.24;74.57
77013;BME280;67260;53.130;17.982;2023-02-28T04:11:47;102822.02;;;-5.28;74.34
77013;BME280;67260;53.130;17.982;2023-02-28T04:14:15;102825.41;;;-5.31;74.56
77013;BME280;67260;53.130;17.982;2023-02-28T04:16:42;102823.98;;;-5.30;74.69
77013;BME280;67260;53.130;17.982;2023-02-28T04:19:11;102821.71;;;-5.29;74.63
77013;BME280;67260;53.130;17.982;2023-02-28T04:21:43;102822.55;;;-5.29;74.56
77013;BME280;67260;53.130;17.982;2023-02-28T04:24:13;102819.42;;;-5.28;74.72
77013;BME280;67260;53.130;17.982;2023-02-28T04:26:45;102816.79;;;-5.27;75.03
77013;BME280;67260;53.130;17.982;2023-02-28T04:29:15;102818.04;;;-5.28;74.71
77013;BME280;67260;53.130;17.982;2023-02-28T04:31:44;102820.48;;;-5.28;74.73
77013;BME280;67260;53.130;17.982;2023-02-28T04:34:11;102818.90;;;-5.28;74.88
77013;BME280;67260;53.130;17.982;2023-02-28T04:36:38;102817.48;;;-5.27;74.69
77013;BME280;67260;53.130;17.982;2023-02-28T04:39:04;102821.93;;;-5.25;74.92
77013;BME280;67260;53.130;17.982;2023-02-28T04:41:31;102819.05;;;-5.22;74.90
77013;BME280;67260;53.130;17.982;2023-02-28T04:43:58;102822.70;;;-5.18;75.21
77013;BME280;67260;53.130;17.982;2023-02-28T04:46:25;102823.54;;;-5.18;75.18
77013;BME280;67260;53.130;17.982;2023-02-28T04:48:51;102833.48;;;-5.20;74.99
77013;BME280;67260;53.130;17.982;2023-02-28T04:51:20;102836.39;;;-5.24;74.82
77013;BME280;67260;53.130;17.982;2023-02-28T04:53:48;102836.85;;;-5.28;74.66
77013;BME280;67260;53.130;17.982;2023-02-28T04:56:17;102829.45;;;-5.28;74.85
77013;BME280;67260;53.130;17.982;2023-02-28T04:58:44;102833.38;;;-5.27;74.88
77013;BME280;67260;53.130;17.982;2023-02-28T05:01:23;102834.13;;;-5.29;74.86
77013;BME280;67260;53.130;17.982;2023-02-28T05:03:52;102832.09;;;-5.30;74.82
77013;BME280;67260;53.130;17.982;2023-02-28T05:06:20;102831.93;;;-5.30;75.03
77013;BME280;67260;53.130;17.982;2023-02-28T05:08:46;102837.23;;;-5.34;74.81
77013;BME280;67260;53.130;17.982;2023-02-28T05:11:20;102840.21;;;-5.40;74.98
77013;BME280;67260;53.130;17.982;2023-02-28T05:13:48;102843.69;;;-5.46;74.61
77013;BME280;67260;53.130;17.982;2023-02-28T05:16:16;102841.77;;;-5.50;74.96
77013;BME280;67260;53.130;17.982;2023-02-28T05:18:42;102843.89;;;-5.52;75.15
77013;BME280;67260;53.130;17.982;2023-02-28T05:21:33;102840.14;;;-5.53;74.98
77013;BME280;67260;53.130;17.982;2023-02-28T05:24:03;102842.23;;;-5.53;75.02
77013;BME280;67260;53.130;17.982;2023-02-28T05:26:31;102838.77;;;-5.53;75.36
77013;BME280;67260;53.130;17.982;2023-02-28T05:29:00;102835.96;;;-5.52;75.64
77013;BME280;67260;53.130;17.982;2023-02-28T05:31:27;102834.65;;;-5.49;75.24
77013;BME280;67260;53.130;17.982;2023-02-28T05:33:53;102837.33;;;-5.46;75.38
77013;BME280;67260;53.130;17.982;2023-02-28T05:36:20;102838.54;;;-5.47;75.20
77013;BME280;67260;53.130;17.982;2023-02-28T05:38:48;102836.37;;;-5.49;74.74
77013;BME280;67260;53.130;17.982;2023-02-28T05:41:16;102837.39;;;-5.48;74.99
77013;BME280;67260;53.130;17.982;2023-02-28T05:43:43;102839.52;;;-5.45;75.01
77013;BME280;67260;53.130;17.982;2023-02-28T05:46:12;102846.55;;;-5.44;74.74
77013;BME280;67260;53.130;17.982;2023-02-28T05:48:40;102845.28;;;-5.47;74.66
77013;BME280;67260;53.130;17.982;2023-02-28T05:51:08;102847.55;;;-5.48;74.58
77013;BME280;67260;53.130;17.982;2023-02-28T05:53:35;102848.18;;;-5.46;74.93
77013;BME280;67260;53.130;17.982;2023-02-28T05:56:02;102850.73;;;-5.45;74.80
77013;BME280;67260;53.130;17.982;2023-02-28T05:58:29;102847.85;;;-5.46;74.87
77013;BME280;67260;53.130;17.982;2023-02-28T06:01:18;102849.35;;;-5.44;75.07
77013;BME280;67260;53.130;17.982;2023-02-28T06:03:45;102848.73;;;-5.42;74.91
77013;BME280;67260;53.130;17.982;2023-02-28T06:06:12;102850.60;;;-5.41;75.11
77013;BME280;67260;53.130;17.982;2023-02-28T06:08:38;102854.35;;;-5.39;75.07
77013;BME280;67260;53.130;17.982;2023-02-28T06:11:05;102856.83;;;-5.36;75.21
77013;BME280;67260;53.130;17.982;2023-02-28T06:13:33;102854.67;;;-5.34;75.14
77013;BME280;67260;53.130;17.982;2023-02-28T06:16:03;102856.46;;;-5.31;75.19
77013;BME280;67260;53.130;17.982;2023-02-28T06:18:30;102859.33;;;-5.28;75.41
77013;BME280;67260;53.130;17.982;2023-02-28T06:20:57;102862.46;;;-5.24;75.22
77013;BME280;67260;53.130;17.982;2023-02-28T06:23:24;102861.73;;;-5.18;75.37
77013;BME280;67260;53.130;17.982;2023-02-28T06:25:50;102863.33;;;-5.10;75.16
77013;BME280;67260;53.130;17.982;2023-02-28T06:28:19;102863.26;;;-5.03;75.27
77013;BME280;67260;53.130;17.982;2023-02-28T06:30:45;102864.77;;;-4.97;75.16
77013;BME280;67260;53.130;17.982;2023-02-28T06:33:12;102863.36;;;-4.91;74.90
77013;BME280;67260;53.130;17.982;2023-02-28T06:35:39;102864.87;;;-4.85;74.77
77013;BME280;67260;53.130;17.982;2023-02-28T06:38:06;102868.30;;;-4.80;74.87
77013;BME280;67260;53.130;17.982;2023-02-28T06:40:32;102869.04;;;-4.76;75.13
77013;BME280;67260;53.130;17.982;2023-02-28T06:43:02;102868.38;;;-4.72;74.94
77013;BME280;67260;53.130;17.982;2023-02-28T06:45:29;102876.84;;;-4.67;75.52
77013;BME280;67260;53.130;17.982;2023-02-28T06:47:55;102873.40;;;-4.63;75.16
77013;BME280;67260;53.130;17.982;2023-02-28T06:50:22;102874.98;;;-4.59;75.57
77013;BME280;67260;53.130;17.982;2023-02-28T06:52:49;102876.36;;;-4.54;75.63
77013;BME280;67260;53.130;17.982;2023-02-28T06:55:20;102878.94;;;-4.49;75.41
77013;BME280;67260;53.130;17.982;2023-02-28T06:57:46;102884.52;;;-4.45;75.37
77013;BME280;67260;53.130;17.982;2023-02-28T07:00:14;102887.14;;;-4.42;75.47
77013;BME280;67260;53.130;17.982;2023-02-28T07:02:41;102890.69;;;-4.35;75.26
77013;BME280;67260;53.130;17.982;2023-02-28T07:05:08;102895.06;;;-4.27;75.33
77013;BME280;67260;53.130;17.982;2023-02-28T07:07:35;102897.13;;;-4.22;75.59
77013;BME280;67260;53.130;17.982;2023-02-28T07:10:04;102896.79;;;-4.14;75.22
77013;BME280;67260;53.130;17.982;2023-02-28T07:12:32;102901.44;;;-4.04;75.46
77013;BME280;67260;53.130;17.982;2023-02-28T07:14:59;102897.52;;;-3.97;75.09
77013;BME280;67260;53.130;17.982;2023-02-28T07:17:25;102895.81;;;-3.88;75.43
77013;BME280;67260;53.130;17.982;2023-02-28T07:19:52;102891.30;;;-3.79;75.29
77013;BME280;67260;53.130;17.982;2023-02-28T07:22:18;102893.58;;;-3.72;75.25
77013;BME280;67260;53.130;17.982;2023-02-28T07:24:45;102892.05;;;-3.64;75.37
77013;BME280;67260;53.130;17.982;2023-02-28T07:27:12;102889.15;;;-3.56;75.12
77013;BME280;67260;53.130;17.982;2023-02-28T07:29:38;102886.91;;;-3.48;75.09
77013;BME280;67260;53.130;17.982;2023-02-28T07:32:05;102885.88;;;-3.40;74.99
77013;BME280;67260;53.130;17.982;2023-02-28T07:34:32;102884.02;;;-3.32;74.70
77013;BME280;67260;53.130;17.982;2023-02-28T07:36:58;102882.75;;;-3.27;74.83
77013;BME280;67260;53.130;17.982;2023-02-28T07:39:26;102885.64;;;-3.21;75.16
77013;BME280;67260;53.130;17.982;2023-02-28T07:41:53;102886.29;;;-3.16;74.97
77013;BME280;67260;53.130;17.982;2023-02-28T07:44:23;102886.02;;;-3.11;75.00
77013;BME280;67260;53.130;17.982;2023-02-28T07:46:49;102881.08;;;-3.05;75.15
77013;BME280;67260;53.130;17.982;2023-02-28T07:49:16;102876.39;;;-3.01;75.23
77013;BME280;67260;53.130;17.982;2023-02-28T07:51:43;102872.05;;;-2.96;75.39
77013;BME280;67260;53.130;17.982;2023-02-28T07:54:09;102875.95;;;-2.90;75.32
77013;BME280;67260;53.130;17.982;2023-02-28T07:56:36;102880.14;;;-2.83;75.68
77013;BME280;67260;53.130;17.982;2023-02-28T07:59:03;102881.39;;;-2.72;75.33
77013;BME280;67260;53.130;17.982;2023-02-28T08:01:29;102886.80;;;-2.61;75.16
77013;BME280;67260;53.130;17.982;2023-02-28T08:03:56;102888.93;;;-2.51;75.26
77013;BME280;67260;53.130;17.982;2023-02-28T08:06:24;102889.05;;;-2.41;75.10
77013;BME280;67260;53.130;17.982;2023-02-28T08:08:53;102888.38;;;-2.31;75.22
77013;BME280;67260;53.130;17.982;2023-02-28T08:11:19;102892.91;;;-2.20;75.14
77013;BME280;67260;53.130;17.982;2023-02-28T08:13:46;102893.27;;;-2.09;75.02
77013;BME280;67260;53.130;17.982;2023-02-28T08:16:14;102896.80;;;-2.00;74.99
77013;BME280;67260;53.130;17.982;2023-02-28T08:18:43;102899.16;;;-1.91;75.12
77013;BME280;67260;53.130;17.982;2023-02-28T08:21:11;102895.09;;;-1.82;74.59
77013;BME280;67260;53.130;17.982;2023-02-28T08:23:38;102894.14;;;-1.73;74.68
77013;BME280;67260;53.130;17.982;2023-02-28T08:26:05;102888.52;;;-1.65;74.63
77013;BME280;67260;53.130;17.982;2023-02-28T08:28:32;102890.02;;;-1.56;74.37
77013;BME280;67260;53.130;17.982;2023-02-28T08:30:59;102883.27;;;-1.50;74.27
77013;BME280;67260;53.130;17.982;2023-02-28T08:33:27;102880.52;;;-1.43;74.24
77013;BME280;67260;53.130;17.982;2023-02-28T08:35:57;102875.67;;;-1.37;74.08
77013;BME280;67260;53.130;17.982;2023-02-28T08:38:24;102873.12;;;-1.31;74.14
77013;BME280;67260;53.130;17.982;2023-02-28T08:40:56;102879.59;;;-1.25;74.07
77013;BME280;67260;53.130;17.982;2023-02-28T08:43:23;102876.66;;;-1.18;74.24
77013;BME280;67260;53.130;17.982;2023-02-28T08:45:57;102872.13;;;-1.11;74.21
77013;BME280;67260;53.130;17.982;2023-02-28T08:48:25;102870.07;;;-1.02;73.85
77013;BME280;67260;53.130;17.982;2023-02-28T08:51:00;102867.63;;;-0.92;73.69
77013;BME280;67260;53.130;17.982;2023-02-28T08:53:27;102859.76;;;-0.81;73.74
77013;BME280;67260;53.130;17.982;2023-02-28T08:56:01;102861.76;;;-0.70;73.80
77013;BME280;67260;53.130;17.982;2023-02-28T08:58:29;102858.71;;;-0.58;73.44
77013;BME280;67260;53.130;17.982;2023-02-28T09:00:55;102859.73;;;-0.48;73.15
77013;BME280;67260;53.130;17.982;2023-02-28T09:03:23;102856.19;;;-0.41;72.72
77013;BME280;67260;53.130;17.982;2023-02-28T09:05:58;102858.23;;;-0.34;72.61
77013;BME280;67260;53.130;17.982;2023-02-28T09:08:28;102857.52;;;-0.26;72.29
77013;BME280;67260;53.130;17.982;2023-02-28T09:10:57;102858.61;;;-0.21;72.23
77013;BME280;67260;53.130;17.982;2023-02-28T09:13:25;102863.06;;;-0.17;71.75
77013;BME280;67260;53.130;17.982;2023-02-28T09:15:53;102869.14;;;-0.10;71.58
77013;BME280;67260;53.130;17.982;2023-02-28T09:18:20;102862.26;;;-0.05;71.53
77013;BME280;67260;53.130;17.982;2023-02-28T09:20:47;102863.15;;;0.00;71.55
77013;BME280;67260;53.130;17.982;2023-02-28T09:23:13;102857.38;;;0.07;71.16
77013;BME280;67260;53.130;17.982;2023-02-28T09:25:49;102852.16;;;0.13;70.89
77013;BME280;67260;53.130;17.982;2023-02-28T09:28:16;102856.27;;;0.20;70.87
77013;BME280;67260;53.130;17.982;2023-02-28T09:30:44;102855.04;;;0.26;70.57
77013;BME280;67260;53.130;17.982;2023-02-28T09:33:13;102854.35;;;0.35;70.17
77013;BME280;67260;53.130;17.982;2023-02-28T09:35:40;102852.06;;;0.45;69.98
77013;BME280;67260;53.130;17.982;2023-02-28T09:38:07;102851.76;;;0.53;69.52
77013;BME280;67260;53.130;17.982;2023-02-28T09:40:46;102857.07;;;0.61;69.20
77013;BME280;67260;53.130;17.982;2023-02-28T09:43:15;102860.60;;;0.66;68.95
77013;BME280;67260;53.130;17.982;2023-02-28T09:45:51;102860.67;;;0.71;68.43
77013;BME280;67260;53.130;17.982;2023-02-28T09:48:23;102859.58;;;0.74;68.21
77013;BME280;67260;53.130;17.982;2023-02-28T09:50:57;102864.08;;;0.81;67.97
77013;BME280;67260;53.130;17.982;2023-02-28T09:53:36;102862.80;;;0.87;67.41
77013;BME280;67260;53.130;17.982;2023-02-28T09:56:12;102865.95;;;0.93;67.03
77013;BME280;67260;53.130;17.982;2023-02-28T09:59:54;102859.27;;;0.97;67.14
77013;BME280;67260;53.130;17.982;2023-02-28T10:02:05;102859.21;;;1.01;67.42
77013;BME280;67260;53.130;17.982;2023-02-28T10:04:52;102847.73;;;1.06;67.00
77013;BME280;67260;53.130;17.982;2023-02-28T10:10:03;102848.58;;;1.17;66.52
77013;BME280;67260;53.130;17.982;2023-02-28T10:12:31;102851.25;;;1.22;65.85
77013;BME280;67260;53.130;17.982;2023-02-28T10:14:59;102844.50;;;1.24;65.93
77013;BME280;67260;53.130;17.982;2023-02-28T10:17:38;102849.02;;;1.27;65.26
77013;BME280;67260;53.130;17.982;2023-02-28T10:20:11;102850.31;;;1.32;64.88
77013;BME280;67260;53.130;17.982;2023-02-28T10:22:53;102851.39;;;1.37;64.45
77013;BME280;67260;53.130;17.982;2023-02-28T10:25:27;102852.71;;;1.41;64.81
77013;BME280;67260;53.130;17.982;2023-02-28T10:28:01;102851.75;;;1.45;64.78
77013;BME280;67260;53.130;17.982;2023-02-28T10:30:31;102842.23;;;1.49;64.79
77013;BME280;67260;53.130;17.982;2023-02-28T10:32:58;102836.06;;;1.53;64.49
77013;BME280;67260;53.130;17.982;2023-02-28T10:35:26;102831.30;;;1.57;64.32
77013;BME280;67260;53.130;17.982;2023-02-28T10:37:56;102826.52;;;1.60;64.40
77013;BME280;67260;53.130;17.982;2023-02-28T10:42:57;102821.04;;;1.73;64.27
77013;BME280;67260;53.130;17.982;2023-02-28T10:45:25;102823.30;;;1.81;64.01
77013;BME280;67260;53.130;17.982;2023-02-28T10:53:30;102818.92;;;1.97;62.76
77013;BME280;67260;53.130;17.982;2023-02-28T10:59:22;102813.88;;;2.08;62.80
77013;BME280;67260;53.130;17.982;2023-02-28T11:01:50;102803.45;;;2.14;61.79
77013;BME280;67260;53.130;17.982;2023-02-28T11:04:33;102806.54;;;2.20;61.78
77013;BME280;67260;53.130;17.982;2023-02-28T11:07:05;102807.96;;;2.28;61.79
77013;BME280;67260;53.130;17.982;2023-02-28T11:09:39;102802.46;;;2.35;61.71
77013;BME280;67260;53.130;17.982;2023-02-28T11:12:18;102804.04;;;2.40;61.09
77013;BME280;67260;53.130;17.982;2023-02-28T11:15:20;102804.70;;;2.43;61.34
77013;BME280;67260;53.130;17.982;2023-02-28T11:17:54;102796.02;;;2.47;61.53
77013;BME280;67260;53.130;17.982;2023-02-28T11:20:23;102794.83;;;2.52;61.31
77013;BME280;67260;53.130;17.982;2023-02-28T11:22:52;102794.78;;;2.55;61.37
77013;BME280;67260;53.130;17.982;2023-02-28T11:25:24;102799.61;;;2.59;61.40
77013;BME280;67260;53.130;17.982;2023-02-28T11:27:58;102797.73;;;2.63;61.43
77013;BME280;67260;53.130;17.982;2023-02-28T11:30:33;102796.48;;;2.66;61.33
77013;BME280;67260;53.130;17.982;2023-02-28T11:35:50;102791.40;;;2.71;60.94
77013;BME280;67260;53.130;17.982;2023-02-28T11:38:16;102783.32;;;2.74;61.09
77013;BME280;67260;53.130;17.982;2023-02-28T11:43:34;102778.60;;;2.84;60.89
77013;BME280;67260;53.130;17.982;2023-02-28T11:46:06;102777.84;;;2.93;60.00
77013;BME280;67260;53.130;17.982;2023-02-28T11:49:14;102776.15;;;2.97;59.60
77013;BME280;67260;53.130;17.982;2023-02-28T11:51:49;102770.45;;;3.01;59.92
77013;BME280;67260;53.130;17.982;2023-02-28T11:57:17;102771.06;;;3.07;59.51
77013;BME280;67260;53.130;17.982;2023-02-28T12:05:43;102765.58;;;3.22;58.85
77013;BME280;67260;53.130;17.982;2023-02-28T12:16:50;102753.98;;;3.33;58.54
77013;BME280;67260;53.130;17.982;2023-02-28T12:19:25;102755.02;;;3.36;58.90
77013;BME280;67260;53.130;17.982;2023-02-28T12:22:29;102753.54;;;3.39;58.39
77013;BME280;67260;53.130;17.982;2023-02-28T12:27:42;102754.13;;;3.43;56.86
77013;BME280;67260;53.130;17.982;2023-02-28T12:30:17;102759.74;;;3.43;56.79
77013;BME280;67260;53.130;17.982;2023-02-28T12:32:50;102755.75;;;3.42;57.62
77013;BME280;67260;53.130;17.982;2023-02-28T12:35:23;102755.29;;;3.41;57.51
77013;BME280;67260;53.130;17.982;2023-02-28T12:41:00;102749.25;;;3.42;56.43
77013;BME280;67260;53.130;17.982;2023-02-28T12:43:33;102751.25;;;3.44;57.05
77013;BME280;67260;53.130;17.982;2023-02-28T12:46:24;102747.98;;;3.45;56.85
77013;BME280;67260;53.130;17.982;2023-02-28T12:49:02;102739.05;;;3.48;56.45
77013;BME280;67260;53.130;17.982;2023-02-28T12:51:31;102732.81;;;3.52;55.71
77013;BME280;67260;53.130;17.982;2023-02-28T12:54:07;102730.38;;;3.54;55.46
77013;BME280;67260;53.130;17.982;2023-02-28T12:59:35;102730.30;;;3.55;56.64
77013;BME280;67260;53.130;17.982;2023-02-28T13:07:13;102711.78;;;3.54;55.81
77013;BME280;67260;53.130;17.982;2023-02-28T13:09:52;102709.75;;;3.56;55.45
77013;BME280;67260;53.130;17.982;2023-02-28T13:12:20;102712.40;;;3.58;55.41
77013;BME280;67260;53.130;17.982;2023-02-28T13:14:47;102706.29;;;3.60;54.82
77013;BME280;67260;53.130;17.982;2023-02-28T13:17:19;102703.66;;;3.60;55.05
77013;BME280;67260;53.130;17.982;2023-02-28T13:19:57;102705.59;;;3.60;54.69
77013;BME280;67260;53.130;17.982;2023-02-28T13:24:53;102704.09;;;3.61;54.10
77013;BME280;67260;53.130;17.982;2023-02-28T13:27:35;102701.19;;;3.63;54.03
77013;BME280;67260;53.130;17.982;2023-02-28T13:33:36;102698.02;;;3.63;53.31
77013;BME280;67260;53.130;17.982;2023-02-28T13:38:53;102694.02;;;3.65;53.21
77013;BME280;67260;53.130;17.982;2023-02-28T14:06:38;102666.44;;;4.21;53.03
77013;BME280;67260;53.130;17.982;2023-02-28T14:09:21;102661.27;;;4.34;52.62
77013;BME280;67260;53.130;17.982;2023-02-28T14:11:50;102660.44;;;4.46;52.04
77013;BME280;67260;53.130;17.982;2023-02-28T14:17:15;102658.21;;;4.70;51.87
77013;BME280;67260;53.130;17.982;2023-02-28T14:19:47;102658.26;;;4.81;51.63
77013;BME280;67260;53.130;17.982;2023-02-28T14:31:29;102655.95;;;5.14;49.05
77013;BME280;67260;53.130;17.982;2023-02-28T14:34:12;102655.30;;;5.17;49.47
77013;BME280;67260;53.130;17.982;2023-02-28T14:36:43;102639.23;;;5.22;49.65
77013;BME280;67260;53.130;17.982;2023-02-28T14:39:16;102637.66;;;5.27;49.88
77013;BME280;67260;53.130;17.982;2023-02-28T14:41:45;102640.65;;;5.26;49.50
77013;BME280;67260;53.130;17.982;2023-02-28T14:44:24;102637.03;;;5.28;48.94
77013;BME280;67260;53.130;17.982;2023-02-28T14:46:59;102634.95;;;5.28;49.02
77013;BME280;67260;53.130;17.982;2023-02-28T14:49:42;102634.38;;;5.26;49.41
77013;BME280;67260;53.130;17.982;2023-02-28T14:54:44;102637.45;;;5.36;48.74
77013;BME280;67260;53.130;17.982;2023-02-28T14:57:29;102635.55;;;5.39;49.01
77013;BME280;67260;53.130;17.982;2023-02-28T15:00:00;102638.25;;;5.47;49.34
77013;BME280;67260;53.130;17.982;2023-02-28T15:02:34;102643.55;;;5.53;48.55
77013;BME280;67260;53.130;17.982;2023-02-28T15:05:26;102647.83;;;5.54;48.73
77013;BME280;67260;53.130;17.982;2023-02-28T15:08:14;102646.23;;;5.56;49.07
77013;BME280;67260;53.130;17.982;2023-02-28T15:11:03;102646.55;;;5.57;48.67
77013;BME280;67260;53.130;17.982;2023-02-28T15:13:52;102643.55;;;5.62;48.17
77013;BME280;67260;53.130;17.982;2023-02-28T15:19:03;102644.76;;;5.39;48.07
77013;BME280;67260;53.130;17.982;2023-02-28T15:21:44;102639.71;;;5.25;47.78